Time;durP1;ratioP1;P1;durP2;ratioP2;P2;SDS_P1;SDS_P2;PMS_P1;PMS_P2;Temp;Humidity;BMP_temperature;BMP_pressure;BME280_temperature;BME280_humidity;BME280_pressure;Samples;Min_cycle;Max_cycle;Signal;HPM_P1;HPM_P2
2021/09/07 00:00:18;;;;;;;10.20;5.95;;;18.50;90.70;;;;;;5099051;28;20028;-83
2021/09/07 00:02:44;;;;;;;8.85;5.90;;;18.50;90.90;;;;;;5075898;28;20020;-82
2021/09/07 00:05:11;;;;;;;10.18;6.10;;;18.50;91.10;;;;;;5084636;28;20114;-83
2021/09/07 00:07:37;;;;;;;11.02;6.13;;;18.50;91.20;;;;;;5096438;28;20042;-82
2021/09/07 00:10:05;;;;;;;11.98;5.80;;;18.50;91.40;;;;;;5096241;28;20074;-82
2021/09/07 00:12:31;;;;;;;11.40;5.80;;;18.50;91.50;;;;;;5114529;28;20024;-82
2021/09/07 00:14:57;;;;;;;10.23;6.20;;;18.50;91.50;;;;;;5103051;28;20028;-83
2021/09/07 00:17:23;;;;;;;9.90;6.18;;;18.40;91.50;;;;;;5075637;28;20450;-82
2021/09/07 00:19:48;;;;;;;10.00;5.97;;;18.40;91.60;;;;;;5076257;28;20131;-83
2021/09/07 00:22:14;;;;;;;12.35;6.43;;;18.40;91.70;;;;;;5079845;28;20023;-82
2021/09/07 00:24:40;;;;;;;10.23;6.05;;;18.40;91.80;;;;;;5093102;28;20016;-81
2021/09/07 00:27:05;;;;;;;8.70;5.72;;;18.40;91.90;;;;;;5075871;28;20036;-81
2021/09/07 00:29:31;;;;;;;10.68;6.38;;;18.30;92.00;;;;;;5075469;28;20452;-82
2021/09/07 00:31:56;;;;;;;9.07;6.05;;;18.30;92.00;;;;;;5093091;28;20051;-81
2021/09/07 00:34:22;;;;;;;10.55;6.30;;;18.20;92.00;;;;;;5089564;28;20024;-80
2021/09/07 00:36:48;;;;;;;10.57;6.57;;;18.20;92.10;;;;;;5093443;28;20034;-80
2021/09/07 00:39:14;;;;;;;9.95;6.68;;;18.10;92.20;;;;;;5106362;28;20040;-83
2021/09/07 00:41:41;;;;;;;10.57;6.15;;;18.10;92.30;;;;;;5099026;28;20069;-83
2021/09/07 00:44:18;;;;;;;8.98;6.03;;;17.90;92.60;;;;;;5099940;28;20402;-84
2021/09/07 00:46:51;;;;;;;9.50;6.32;;;18.00;92.60;;;;;;5100103;28;20379;-83
2021/09/07 00:49:18;;;;;;;9.40;5.88;;;18.00;92.50;;;;;;5100005;28;20118;-84
2021/09/07 00:51:45;;;;;;;9.45;5.60;;;18.10;92.30;;;;;;5099300;28;20035;-84
2021/09/07 00:54:11;;;;;;;9.30;6.20;;;18.00;92.30;;;;;;5079295;28;20028;-85
2021/09/07 00:56:39;;;;;;;10.85;5.88;;;18.00;92.20;;;;;;5105481;28;20031;-87
2021/09/07 00:59:06;;;;;;;9.00;5.60;;;17.90;92.20;;;;;;5099140;28;20050;-87
2021/09/07 01:01:32;;;;;;;8.98;5.90;;;17.80;92.20;;;;;;5099712;28;20031;-87
2021/09/07 01:03:57;;;;;;;9.57;6.07;;;17.80;92.30;;;;;;5099457;28;20072;-87
2021/09/07 01:06:23;;;;;;;8.35;5.47;;;17.70;92.40;;;;;;5099184;28;20035;-86
2021/09/07 01:08:49;;;;;;;8.05;5.15;;;17.70;92.30;;;;;;5089873;28;20097;-81
2021/09/07 01:11:18;;;;;;;10.00;5.63;;;17.70;92.40;;;;;;5096672;28;20020;-82
2021/09/07 01:13:44;;;;;;;9.27;5.60;;;17.60;92.40;;;;;;5084688;28;20020;-82
2021/09/07 01:16:09;;;;;;;10.10;6.35;;;17.60;92.50;;;;;;5112810;28;20077;-83
2021/09/07 01:18:35;;;;;;;10.20;6.03;;;17.50;92.60;;;;;;5078725;28;20060;-82
2021/09/07 01:21:01;;;;;;;11.07;6.18;;;17.60;92.70;;;;;;5080381;28;20361;-83
2021/09/07 01:23:27;;;;;;;8.70;5.80;;;17.60;92.70;;;;;;5080284;28;20053;-83
2021/09/07 01:25:53;;;;;;;8.70;5.28;;;17.50;92.80;;;;;;5078884;28;20147;-82
2021/09/07 01:28:19;;;;;;;9.77;6.47;;;17.40;93.00;;;;;;5079280;28;20028;-83
2021/09/07 01:30:44;;;;;;;9.98;6.13;;;17.50;92.90;;;;;;5079600;28;20032;-83
2021/09/07 01:33:11;;;;;;;8.90;5.88;;;17.40;93.00;;;;;;5078805;28;20024;-84
2021/09/07 01:35:39;;;;;;;13.45;6.28;;;17.40;93.00;;;;;;5079335;28;20384;-83
2021/09/07 01:38:05;;;;;;;8.93;5.93;;;17.30;93.20;;;;;;5078480;28;20039;-83
2021/09/07 01:40:31;;;;;;;12.25;6.43;;;17.20;93.30;;;;;;5097091;28;20024;-82
2021/09/07 01:42:56;;;;;;;12.48;7.38;;;17.30;93.30;;;;;;5078022;28;20024;-83
2021/09/07 01:45:22;;;;;;;17.63;6.13;;;17.20;93.30;;;;;;5079188;28;20419;-82
2021/09/07 01:47:50;;;;;;;8.32;6.22;;;17.20;93.30;;;;;;5102016;28;20062;-82
2021/09/07 01:50:17;;;;;;;9.05;5.95;;;17.20;93.30;;;;;;5098576;28;20024;-83
2021/09/07 01:52:43;;;;;;;9.90;6.28;;;17.20;93.30;;;;;;5097835;28;20024;-82
2021/09/07 01:55:09;;;;;;;10.43;6.72;;;17.20;93.30;;;;;;5098341;28;20028;-83
2021/09/07 01:57:34;;;;;;;10.65;6.07;;;17.20;93.30;;;;;;5098909;28;20031;-82
2021/09/07 02:00:00;;;;;;;14.68;6.80;;;17.30;93.50;;;;;;5098588;28;20023;-83
2021/09/07 02:02:26;;;;;;;9.13;5.88;;;17.30;93.30;;;;;;5099095;28;20370;-83
2021/09/07 02:04:52;;;;;;;9.02;6.10;;;17.40;93.30;;;;;;5098403;28;20019;-82
2021/09/07 02:07:17;;;;;;;9.05;6.15;;;17.40;93.30;;;;;;5116303;28;20042;-82
2021/09/07 02:09:43;;;;;;;11.20;6.82;;;17.40;93.20;;;;;;5096465;28;20358;-82
2021/09/07 02:12:09;;;;;;;9.30;6.43;;;17.40;93.20;;;;;;5095786;28;20086;-83
2021/09/07 02:14:34;;;;;;;10.65;6.65;;;17.30;93.20;;;;;;5078269;28;20519;-82
2021/09/07 02:17:00;;;;;;;12.82;5.85;;;17.30;93.40;;;;;;5095690;28;20032;-83
2021/09/07 02:19:26;;;;;;;10.57;6.30;;;17.30;93.30;;;;;;5100427;28;20102;-82
2021/09/07 02:21:51;;;;;;;9.43;5.93;;;17.20;93.40;;;;;;5078445;28;20024;-81
2021/09/07 02:24:17;;;;;;;9.85;6.38;;;17.20;93.40;;;;;;5095634;28;20039;-82
2021/09/07 02:26:43;;;;;;;12.48;6.45;;;17.10;93.50;;;;;;5078221;28;20054;-82
2021/09/07 02:29:09;;;;;;;10.93;6.38;;;17.10;93.50;;;;;;5076757;28;20024;-82
2021/09/07 02:31:35;;;;;;;9.82;5.90;;;17.10;93.60;;;;;;5077713;28;20112;-82
2021/09/07 02:34:01;;;;;;;12.25;6.95;;;16.90;93.70;;;;;;5095172;28;20085;-83
2021/09/07 02:36:27;;;;;;;10.30;5.95;;;16.90;93.90;;;;;;5095402;28;20107;-82
2021/09/07 02:38:54;;;;;;;10.07;6.60;;;16.80;94.10;;;;;;5077214;28;20028;-82
2021/09/07 02:41:21;;;;;;;10.93;6.30;;;16.80;94.10;;;;;;5077480;28;20028;-82
2021/09/07 02:43:46;;;;;;;11.18;6.63;;;16.80;94.00;;;;;;5077462;28;20035;-82
2021/09/07 02:46:12;;;;;;;8.98;6.18;;;16.90;94.10;;;;;;5076389;28;20036;-82
2021/09/07 02:48:38;;;;;;;9.35;6.25;;;16.90;93.90;;;;;;5076731;28;20032;-82
2021/09/07 02:51:04;;;;;;;10.00;6.90;;;16.90;93.90;;;;;;5096195;28;20108;-82
2021/09/07 02:53:29;;;;;;;10.80;6.55;;;16.80;94.00;;;;;;5095262;28;20024;-82
2021/09/07 02:55:55;;;;;;;10.73;6.85;;;16.80;93.90;;;;;;5077207;28;20027;-81
2021/09/07 02:58:21;;;;;;;8.88;6.45;;;16.70;94.00;;;;;;5095093;28;20036;-82
2021/09/07 03:00:46;;;;;;;10.35;6.32;;;16.70;94.10;;;;;;5076880;28;20024;-81
2021/09/07 03:03:12;;;;;;;12.90;6.55;;;16.70;94.00;;;;;;5075757;28;20024;-82
2021/09/07 03:05:38;;;;;;;8.48;6.05;;;16.70;94.20;;;;;;5076945;28;20031;-82
2021/09/07 03:08:04;;;;;;;11.38;6.38;;;16.70;94.10;;;;;;5094140;28;20524;-82
2021/09/07 03:10:30;;;;;;;10.68;6.80;;;16.70;94.20;;;;;;5076847;28;20031;-83
2021/09/07 03:12:55;;;;;;;10.43;6.70;;;16.70;94.10;;;;;;5077033;28;20373;-83
2021/09/07 03:15:22;;;;;;;12.38;6.57;;;16.60;94.20;;;;;;5076488;28;20112;-83
2021/09/07 03:17:48;;;;;;;9.88;6.53;;;16.50;94.30;;;;;;5076464;28;20056;-82
2021/09/07 03:20:14;;;;;;;10.23;6.47;;;16.50;94.40;;;;;;5076728;28;20107;-83
2021/09/07 03:22:40;;;;;;;10.18;6.30;;;16.50;94.60;;;;;;5094786;28;20093;-82
2021/09/07 03:25:06;;;;;;;12.15;6.97;;;16.50;94.40;;;;;;5076068;28;20020;-83
2021/09/07 03:27:32;;;;;;;10.43;7.03;;;16.50;94.40;;;;;;5076800;28;20024;-83
2021/09/07 03:29:57;;;;;;;9.25;5.75;;;16.50;94.50;;;;;;5076724;28;20028;-83
2021/09/07 03:32:23;;;;;;;10.32;6.90;;;16.40;94.50;;;;;;5076257;28;20461;-83
2021/09/07 03:34:49;;;;;;;9.00;6.03;;;16.40;94.60;;;;;;5103186;28;20030;-82
2021/09/07 03:37:15;;;;;;;9.00;6.53;;;16.30;94.80;;;;;;5096477;28;20038;-82
2021/09/07 03:39:41;;;;;;;9.75;6.78;;;16.30;94.90;;;;;;5096464;28;20107;-82
2021/09/07 03:42:06;;;;;;;10.02;6.53;;;16.30;94.90;;;;;;5095995;28;20050;-82
2021/09/07 03:44:32;;;;;;;10.57;6.93;;;16.30;94.80;;;;;;5096759;28;20035;-83
2021/09/07 03:46:58;;;;;;;12.30;6.57;;;16.40;94.80;;;;;;5096587;28;20032;-82
2021/09/07 03:49:24;;;;;;;9.50;6.60;;;16.40;94.70;;;;;;5096036;28;20118;-83
2021/09/07 03:51:50;;;;;;;11.20;6.85;;;16.30;94.70;;;;;;5096037;28;20054;-82
2021/09/07 03:54:16;;;;;;;10.15;6.22;;;16.30;94.70;;;;;;5095859;28;20024;-82
2021/09/07 03:56:41;;;;;;;12.32;7.07;;;16.20;94.90;;;;;;5096143;28;20027;-82
2021/09/07 03:59:07;;;;;;;10.07;7.00;;;16.20;94.90;;;;;;5113862;28;20027;-82
2021/09/07 04:01:32;;;;;;;10.77;7.13;;;16.20;94.90;;;;;;5114484;28;20027;-82
2021/09/07 04:03:58;;;;;;;9.93;6.57;;;16.20;94.90;;;;;;5096777;28;20491;-81
2021/09/07 04:06:24;;;;;;;12.35;6.55;;;16.20;94.80;;;;;;5095575;28;20035;-82
2021/09/07 04:08:49;;;;;;;9.63;6.47;;;16.20;94.70;;;;;;5096393;28;20460;-81
2021/09/07 04:11:15;;;;;;;8.82;6.70;;;16.20;94.70;;;;;;5095383;28;20092;-82
2021/09/07 04:13:40;;;;;;;10.65;6.35;;;16.20;94.60;;;;;;5113812;28;20020;-82
2021/09/07 04:16:06;;;;;;;10.48;6.70;;;16.20;94.60;;;;;;5112349;28;20031;-81
2021/09/07 04:18:32;;;;;;;9.55;6.40;;;16.20;94.60;;;;;;5081282;28;20053;-82
2021/09/07 04:20:57;;;;;;;8.07;6.53;;;16.20;94.60;;;;;;5072803;28;20100;-82
2021/09/07 04:23:23;;;;;;;9.95;6.50;;;16.30;94.70;;;;;;5071543;28;20032;-82
2021/09/07 04:25:49;;;;;;;11.23;6.47;;;16.30;94.60;;;;;;5072711;28;20029;-82
2021/09/07 04:28:15;;;;;;;12.10;6.82;;;16.40;94.60;;;;;;5073093;28;20029;-82
2021/09/07 04:30:41;;;;;;;9.48;6.60;;;16.40;94.50;;;;;;5072449;28;20025;-81
2021/09/07 04:33:07;;;;;;;11.93;6.65;;;16.40;94.50;;;;;;5073021;28;20025;-82
2021/09/07 04:35:32;;;;;;;11.77;6.53;;;16.30;94.60;;;;;;5072453;28;20113;-81
2021/09/07 04:37:58;;;;;;;9.43;6.68;;;16.30;94.60;;;;;;5072887;28;20036;-82
2021/09/07 04:40:24;;;;;;;8.57;6.35;;;16.30;94.60;;;;;;5071839;28;20028;-82
2021/09/07 04:42:49;;;;;;;10.35;6.78;;;16.20;94.70;;;;;;5073377;28;20036;-82
2021/09/07 04:45:15;;;;;;;9.30;6.07;;;16.20;94.70;;;;;;5074295;28;20021;-82
2021/09/07 04:47:41;;;;;;;10.63;6.55;;;16.20;94.70;;;;;;5092525;28;20119;-82
2021/09/07 04:50:07;;;;;;;10.88;6.70;;;16.20;94.60;;;;;;5092043;28;20025;-83
2021/09/07 04:52:33;;;;;;;9.52;6.45;;;16.10;94.70;;;;;;5093726;28;20052;-82
2021/09/07 04:54:58;;;;;;;10.50;6.25;;;16.10;94.70;;;;;;5092627;28;20055;-82
2021/09/07 04:57:24;;;;;;;9.07;5.95;;;16.10;94.80;;;;;;5092496;28;20190;-82
2021/09/07 04:59:50;;;;;;;11.65;7.30;;;16.00;94.90;;;;;;5092335;28;20122;-82
2021/09/07 05:02:15;;;;;;;11.27;6.97;;;16.10;95.00;;;;;;5093285;28;20088;-82
2021/09/07 05:04:41;;;;;;;9.48;6.50;;;16.10;95.00;;;;;;5093835;28;20113;-81
2021/09/07 05:07:07;;;;;;;10.85;6.95;;;16.20;95.10;;;;;;5091667;28;20024;-83
2021/09/07 05:09:32;;;;;;;8.48;6.15;;;16.30;94.90;;;;;;5092303;28;20026;-83
2021/09/07 05:11:58;;;;;;;9.98;6.78;;;16.30;95.00;;;;;;5092295;28;20070;-82
2021/09/07 05:14:24;;;;;;;12.88;6.50;;;16.20;94.90;;;;;;5091942;28;20054;-83
2021/09/07 05:16:49;;;;;;;11.02;6.55;;;16.20;95.00;;;;;;5086692;28;20382;-83
2021/09/07 05:19:16;;;;;;;10.65;6.60;;;16.20;95.00;;;;;;5074966;28;20067;-83
2021/09/07 05:21:42;;;;;;;9.20;6.25;;;16.20;95.30;;;;;;5075752;28;20028;-83
2021/09/07 05:24:07;;;;;;;10.65;7.32;;;16.20;94.90;;;;;;5075162;28;20031;-84
2021/09/07 05:26:33;;;;;;;10.60;6.43;;;16.10;94.90;;;;;;5094108;28;20028;-82
2021/09/07 05:28:59;;;;;;;12.45;7.45;;;16.20;94.90;;;;;;5096906;28;20024;-82
2021/09/07 05:31:24;;;;;;;10.55;6.45;;;16.20;94.80;;;;;;5078542;28;20101;-82
2021/09/07 05:33:50;;;;;;;8.43;6.15;;;16.30;94.80;;;;;;5079418;28;20306;-81
2021/09/07 05:36:16;;;;;;;11.23;6.80;;;16.20;94.80;;;;;;5078393;28;20444;-82
2021/09/07 05:38:42;;;;;;;9.52;6.82;;;16.30;94.80;;;;;;5078833;28;20027;-82
2021/09/07 05:41:07;;;;;;;10.15;6.63;;;16.30;94.70;;;;;;5096465;28;20016;-83
2021/09/07 05:43:33;;;;;;;10.98;6.80;;;16.40;94.80;;;;;;5079026;28;20016;-81
2021/09/07 05:45:59;;;;;;;11.13;6.45;;;16.40;94.50;;;;;;5095092;28;20108;-84
2021/09/07 05:48:24;;;;;;;11.20;6.68;;;16.40;94.40;;;;;;5098176;28;20031;-82
2021/09/07 05:50:50;;;;;;;11.80;6.78;;;16.50;94.30;;;;;;5095750;28;20036;-82
2021/09/07 05:53:16;;;;;;;15.30;6.50;;;16.50;94.30;;;;;;5095428;28;20024;-82
2021/09/07 05:55:41;;;;;;;10.02;6.55;;;16.40;94.40;;;;;;5098851;28;20023;-81
2021/09/07 05:58:07;;;;;;;11.63;6.88;;;16.50;94.50;;;;;;5095495;28;20088;-84
2021/09/07 06:00:32;;;;;;;12.13;6.68;;;16.50;94.30;;;;;;5095052;28;20460;-82
2021/09/07 06:03:02;;;;;;;10.02;6.40;;;16.50;94.50;;;;;;5095315;28;20028;-82
2021/09/07 06:05:28;;;;;;;10.25;6.50;;;16.60;94.30;;;;;;5098287;28;20120;-83
2021/09/07 06:07:54;;;;;;;11.38;7.05;;;16.60;94.20;;;;;;5116511;28;20535;-82
2021/09/07 06:10:19;;;;;;;12.40;7.03;;;16.60;94.10;;;;;;5098244;28;20483;-82
2021/09/07 06:12:45;;;;;;;9.75;6.60;;;16.60;94.10;;;;;;5098778;28;20024;-82
2021/09/07 06:15:11;;;;;;;10.90;7.18;;;16.50;94.10;;;;;;5097657;28;20460;-83
2021/09/07 06:17:36;;;;;;;9.50;6.68;;;16.50;94.10;;;;;;5097310;28;20486;-83
2021/09/07 06:20:04;;;;;;;10.52;6.25;;;16.50;94.20;;;;;;5098351;28;20093;-83
2021/09/07 06:22:30;;;;;;;14.23;6.88;;;16.60;94.10;;;;;;5096685;28;20028;-83
2021/09/07 06:24:55;;;;;;;11.15;7.05;;;16.60;94.00;;;;;;5096547;28;20027;-83
2021/09/07 06:27:21;;;;;;;10.70;6.82;;;16.70;93.90;;;;;;5114833;28;20035;-83
2021/09/07 06:29:47;;;;;;;12.25;6.60;;;16.60;93.90;;;;;;5098069;28;20024;-84
2021/09/07 06:32:17;;;;;;;14.95;7.75;;;16.70;93.90;;;;;;5093072;28;20028;-83
2021/09/07 06:34:43;;;;;;;13.80;7.55;;;16.70;93.80;;;;;;5078465;28;20460;-82
2021/09/07 06:37:09;;;;;;;10.10;6.57;;;16.80;93.90;;;;;;5086993;28;20423;-81
2021/09/07 06:39:37;;;;;;;13.32;6.80;;;16.90;93.80;;;;;;5085448;28;20024;-81
2021/09/07 06:42:03;;;;;;;12.82;6.90;;;16.90;93.60;;;;;;5080879;28;20381;-85
2021/09/07 06:44:29;;;;;;;14.90;9.65;;;16.90;93.60;;;;;;5085001;28;20034;-85
2021/09/07 06:46:54;;;;;;;10.50;7.65;;;16.90;93.60;;;;;;5096697;28;20036;-88
2021/09/07 06:49:20;;;;;;;11.52;7.47;;;17.00;93.70;;;;;;5095523;28;20034;-90
2021/09/07 06:51:46;;;;;;;13.02;7.50;;;17.00;93.60;;;;;;5088893;28;20384;-88
2021/09/07 06:54:11;;;;;;;13.00;7.55;;;17.00;93.60;;;;;;5097909;28;20023;-86
2021/09/07 06:56:37;;;;;;;11.98;6.75;;;17.10;93.70;;;;;;5079164;28;20035;-85
2021/09/07 06:59:03;;;;;;;10.93;7.20;;;17.10;93.60;;;;;;5078860;28;20093;-83
2021/09/07 07:01:29;;;;;;;10.82;7.25;;;17.20;93.60;;;;;;5078332;28;20024;-86
2021/09/07 07:03:54;;;;;;;12.18;7.80;;;17.30;93.50;;;;;;5079872;28;20028;-85
2021/09/07 07:06:20;;;;;;;11.15;7.32;;;17.30;93.50;;;;;;5077393;28;20485;-85
2021/09/07 07:08:45;;;;;;;11.02;6.60;;;17.30;93.60;;;;;;5077387;28;20058;-86
2021/09/07 07:11:11;;;;;;;12.95;7.38;;;17.30;93.60;;;;;;5076675;28;20095;-85
2021/09/07 07:13:40;;;;;;;14.07;7.65;;;17.40;93.50;;;;;;5083507;28;20045;-84
2021/09/07 07:16:05;;;;;;;10.27;7.43;;;17.40;93.50;;;;;;5097177;28;20024;-89
2021/09/07 07:18:31;;;;;;;13.82;7.70;;;17.50;93.50;;;;;;5074568;28;20520;-90
2021/09/07 07:20:56;;;;;;;12.30;7.93;;;17.60;93.60;;;;;;5074429;28;20043;-89
2021/09/07 07:23:22;;;;;;;11.75;7.63;;;17.60;93.20;;;;;;5072799;28;20020;-90
2021/09/07 07:25:48;;;;;;;14.02;6.90;;;17.70;92.90;;;;;;5073404;28;20078;-91
2021/09/07 07:28:14;;;;;;;11.57;7.15;;;17.70;92.90;;;;;;5082924;28;20377;-88
2021/09/07 07:30:39;;;;;;;11.07;6.80;;;17.80;92.90;;;;;;5086632;28;20029;-88
2021/09/07 07:33:05;;;;;;;13.75;7.38;;;17.80;92.70;;;;;;5079700;28;20147;-88
2021/09/07 07:35:31;;;;;;;9.48;6.55;;;17.80;92.70;;;;;;5082052;28;20450;-90
2021/09/07 07:37:56;;;;;;;12.70;7.07;;;17.90;92.60;;;;;;5081028;28;20070;-88
2021/09/07 07:40:23;;;;;;;11.25;6.63;;;17.90;92.40;;;;;;5075607;28;20366;-83
2021/09/07 07:42:49;;;;;;;12.73;6.80;;;18.00;92.30;;;;;;5089073;28;20060;-83
2021/09/07 07:45:14;;;;;;;12.63;6.70;;;18.00;92.40;;;;;;5080476;28;20055;-83
2021/09/07 07:47:40;;;;;;;10.88;6.53;;;18.20;92.50;;;;;;5079723;28;20043;-84
2021/09/07 07:50:06;;;;;;;9.77;6.75;;;18.20;92.50;;;;;;5072986;28;20028;-84
2021/09/07 07:52:32;;;;;;;9.63;6.38;;;18.30;92.50;;;;;;5084332;28;20396;-83
2021/09/07 07:54:57;;;;;;;10.68;6.88;;;18.40;92.80;;;;;;5083345;28;20029;-82
2021/09/07 07:57:23;;;;;;;10.82;7.07;;;18.50;92.20;;;;;;5072510;28;20423;-83
2021/09/07 07:59:49;;;;;;;11.77;6.68;;;18.60;92.10;;;;;;5074138;28;20027;-81
2021/09/07 08:02:14;;;;;;;11.68;6.63;;;18.70;92.00;;;;;;5077744;28;20029;-82
2021/09/07 08:04:40;;;;;;;11.02;7.18;;;18.80;91.90;;;;;;5092282;28;20024;-80
2021/09/07 08:07:07;;;;;;;9.80;6.68;;;18.80;91.80;;;;;;5093017;28;20036;-79
2021/09/07 08:09:33;;;;;;;11.63;6.78;;;18.90;91.60;;;;;;5090991;28;20012;-80
2021/09/07 08:11:59;;;;;;;8.57;6.72;;;18.90;91.50;;;;;;5072417;28;20086;-81
2021/09/07 08:14:25;;;;;;;10.27;6.65;;;19.00;91.60;;;;;;5072916;28;20025;-81
2021/09/07 08:16:51;;;;;;;9.00;6.30;;;19.00;91.30;;;;;;5072179;28;20093;-78
2021/09/07 08:19:17;;;;;;;12.35;6.35;;;19.10;91.50;;;;;;5074707;28;20056;-84
2021/09/07 08:21:43;;;;;;;11.63;6.70;;;19.10;91.50;;;;;;5075882;28;20028;-79
2021/09/07 08:24:09;;;;;;;12.68;6.55;;;19.20;91.50;;;;;;5093835;28;20525;-85
2021/09/07 08:26:34;;;;;;;9.40;6.30;;;19.30;91.30;;;;;;5078797;28;20024;-87
2021/09/07 08:29:00;;;;;;;13.52;6.82;;;19.30;91.40;;;;;;5113817;28;20024;-88
2021/09/07 08:31:26;;;;;;;11.00;6.22;;;19.40;91.50;;;;;;5110662;28;20508;-84
2021/09/07 08:33:52;;;;;;;7.65;5.65;;;19.40;91.40;;;;;;5078775;28;20031;-84
2021/09/07 08:36:17;;;;;;;9.25;5.68;;;19.50;91.00;;;;;;5076572;28;20028;-85
2021/09/07 08:38:43;;;;;;;8.98;5.63;;;19.50;90.70;;;;;;5075674;28;20031;-86
2021/09/07 08:41:09;;;;;;;13.13;5.90;;;19.60;90.60;;;;;;5101896;28;20028;-84
2021/09/07 08:43:36;;;;;;;10.70;6.10;;;19.70;90.90;;;;;;5109827;28;20077;-85
2021/09/07 08:46:01;;;;;;;8.70;5.88;;;19.80;90.70;;;;;;5079388;28;20021;-83
2021/09/07 08:48:27;;;;;;;12.07;6.30;;;19.70;90.70;;;;;;5109962;28;20081;-84
2021/09/07 08:50:56;;;;;;;10.60;6.20;;;19.80;90.70;;;;;;5093203;28;20073;-84
2021/09/07 08:53:23;;;;;;;9.95;6.20;;;19.80;91.20;;;;;;5094932;28;20114;-86
2021/09/07 08:55:49;;;;;;;10.13;6.13;;;19.80;91.40;;;;;;5093650;28;20049;-86
2021/09/07 08:58:15;;;;;;;11.30;5.80;;;19.90;91.70;;;;;;5091353;28;20512;-80
2021/09/07 09:00:46;;;;;;;11.32;6.13;;;19.90;91.30;;;;;;5112513;28;20024;-80
2021/09/07 09:03:13;;;;;;;11.38;6.07;;;19.90;91.20;;;;;;5096093;28;20016;-80
2021/09/07 09:05:47;;;;;;;11.00;6.03;;;19.90;91.10;;;;;;5104492;28;20024;-81
2021/09/07 09:08:17;;;;;;;10.77;6.38;;;19.80;91.20;;;;;;5089173;28;20036;-82
2021/09/07 09:10:45;;;;;;;10.27;5.95;;;19.90;91.10;;;;;;5095193;28;20484;-80
2021/09/07 09:13:16;;;;;;;8.45;6.30;;;19.90;91.20;;;;;;5092774;28;20480;-80
2021/09/07 09:16:05;;;;;;;7.72;5.97;;;19.90;91.30;;;;;;5078975;28;20016;-82
2021/09/07 09:18:37;;;;;;;8.95;5.95;;;20.00;90.90;;;;;;5107218;28;20082;-82
2021/09/07 09:21:19;;;;;;;;;;;19.90;90.70;;;;;;5106253;28;20028;-81
2021/09/07 09:24:11;;;;;;;11.18;5.95;;;20.00;91.00;;;;;;5094734;28;19908;-84
2021/09/07 09:26:52;;;;;;;10.52;6.13;;;20.00;91.00;;;;;;5096442;28;20035;-82
2021/09/07 09:29:35;;;;;;;9.70;6.45;;;20.00;91.10;;;;;;5097921;28;20070;-82
2021/09/07 09:32:06;;;;;;;12.60;5.90;;;20.10;91.00;;;;;;5079385;28;20027;-83
2021/09/07 09:34:35;;;;;;;9.52;6.53;;;20.10;90.50;;;;;;5083808;28;20451;-83
2021/09/07 09:37:04;;;;;;;11.55;5.60;;;20.10;90.60;;;;;;5086068;28;20472;-86
2021/09/07 09:39:36;;;;;;;9.13;6.55;;;20.20;90.60;;;;;;5092637;28;20024;-83
2021/09/07 09:42:03;;;;;;;10.18;5.93;;;20.20;90.60;;;;;;5101519;28;20582;-83
2021/09/07 09:44:28;;;;;;;10.95;6.50;;;20.30;90.70;;;;;;5088006;28;20047;-84
2021/09/07 09:46:54;;;;;;;9.27;5.60;;;20.30;90.60;;;;;;5100074;28;20032;-84
2021/09/07 09:49:21;;;;;;;9.02;6.53;;;20.40;90.60;;;;;;5094931;28;20365;-83
2021/09/07 09:51:48;;;;;;;8.93;6.03;;;20.40;90.60;;;;;;5089569;28;20023;-84
2021/09/07 09:54:16;;;;;;;10.80;6.20;;;20.50;90.70;;;;;;5116656;28;20032;-84
2021/09/07 09:56:42;;;;;;;9.50;6.45;;;20.50;90.90;;;;;;5079613;28;20063;-84
2021/09/07 09:59:08;;;;;;;11.25;6.40;;;20.60;90.70;;;;;;5078551;28;20032;-86
2021/09/07 10:01:34;;;;;;;7.90;5.57;;;20.60;90.60;;;;;;5082932;28;20054;-84
2021/09/07 10:04:01;;;;;;;8.90;6.03;;;20.70;90.50;;;;;;5105364;28;20345;-82
2021/09/07 10:06:26;;;;;;;10.02;5.78;;;20.70;90.40;;;;;;5116201;28;20508;-83
2021/09/07 10:08:52;;;;;;;10.90;6.70;;;20.70;90.40;;;;;;5087432;28;20073;-83
2021/09/07 10:11:23;;;;;;;9.90;6.55;;;20.70;90.40;;;;;;5078244;28;20028;-83
2021/09/07 10:13:53;;;;;;;9.70;5.88;;;20.80;90.40;;;;;;5079225;28;20051;-87
2021/09/07 10:16:40;;;;;;;8.65;5.88;;;20.90;90.20;;;;;;5078206;28;20028;-84
2021/09/07 10:19:09;;;;;;;8.50;6.03;;;20.90;90.20;;;;;;5089640;28;20052;-81
2021/09/07 10:26:40;;;;;;;9.60;6.03;;;21.10;89.80;;;;;;5095304;28;20102;-82
2021/09/07 10:29:08;;;;;;;8.82;6.40;;;21.10;89.80;;;;;;5095975;28;20059;-82
2021/09/07 10:31:47;;;;;;;8.27;6.30;;;21.10;89.60;;;;;;5093398;28;20116;-79
2021/09/07 10:34:17;;;;;;;9.07;6.18;;;21.20;90.00;;;;;;5094608;28;20078;-80
2021/09/07 10:37:07;;;;;;;8.98;5.82;;;21.30;89.40;;;;;;5093671;28;20039;-81
2021/09/07 10:39:35;;;;;;;8.77;5.43;;;21.40;88.90;;;;;;5095168;28;20043;-81
2021/09/07 10:42:03;;;;;;;8.77;5.80;;;21.40;89.20;;;;;;5079474;28;20035;-81
2021/09/07 10:44:37;;;;;;;8.48;5.82;;;21.50;88.60;;;;;;5089261;28;20035;-83
2021/09/07 10:47:11;;;;;;;11.05;6.18;;;21.60;88.40;;;;;;5094545;28;20559;-81
2021/09/07 10:49:37;;;;;;;8.02;5.95;;;21.50;88.40;;;;;;5086002;28;20505;-81
2021/09/07 10:54:38;;;;;;;8.73;5.82;;;21.70;88.20;;;;;;5094940;28;20526;-81
2021/09/07 10:57:04;;;;;;;9.20;5.90;;;21.70;87.20;;;;;;5095049;28;20089;-81
2021/09/07 10:59:50;;;;;;;7.90;5.15;;;21.80;86.70;;;;;;5085762;28;20021;-79
2021/09/07 11:02:34;;;;;;;7.53;4.70;;;21.90;86.90;;;;;;5085097;28;20025;-81
2021/09/07 11:05:04;;;;;;;7.70;4.72;;;21.90;82.10;;;;;;5073670;28;20054;-79
2021/09/07 11:07:43;;;;;;;10.60;4.82;;;22.00;80.30;;;;;;5089347;28;20024;-80
2021/09/07 11:10:17;;;;;;;24.88;11.23;;;22.20;82.00;;;;;;5073602;28;20496;-80
2021/09/07 11:12:50;;;;;;;29.98;11.50;;;22.20;82.50;;;;;;5074281;28;20028;-80
2021/09/07 11:15:22;;;;;;;18.88;7.55;;;22.30;82.00;;;;;;5073121;28;20024;-80
2021/09/07 11:18:03;;;;;;;12.23;5.78;;;22.40;82.50;;;;;;5082362;28;20052;-80
2021/09/07 11:20:34;;;;;;;8.07;5.00;;;22.40;80.40;;;;;;5083958;28;20032;-80
2021/09/07 11:23:17;;;;;;;8.93;4.60;;;22.50;77.70;;;;;;5086279;28;20032;-79
2021/09/07 11:25:48;;;;;;;8.30;4.82;;;22.40;76.30;;;;;;5091870;28;20020;-81
2021/09/07 11:28:17;;;;;;;6.43;4.38;;;22.50;76.00;;;;;;5079722;28;20024;-80
2021/09/07 11:30:51;;;;;;;9.82;4.45;;;22.50;73.60;;;;;;5086931;28;20031;-80
2021/09/07 11:33:26;;;;;;;6.78;5.05;;;22.50;73.30;;;;;;5086796;28;20028;-81
2021/09/07 11:36:03;;;;;;;7.40;4.82;;;22.60;73.10;;;;;;5083224;28;20115;-81
2021/09/07 11:38:32;;;;;;;7.50;4.93;;;22.70;74.50;;;;;;5071841;28;20063;-87
2021/09/07 11:41:01;;;;;;;7.28;4.68;;;22.80;72.70;;;;;;5073908;28;20033;-80
2021/09/07 11:43:30;;;;;;;8.35;4.85;;;22.90;72.40;;;;;;5077186;28;20054;-84
2021/09/07 11:46:20;;;;;;;6.95;5.00;;;23.00;72.10;;;;;;5082909;28;20082;-83
2021/09/07 11:48:50;;;;;;;7.80;4.32;;;23.10;71.20;;;;;;5074829;28;20358;-83
2021/09/07 11:51:25;;;;;;;8.02;4.90;;;23.10;71.90;;;;;;5089498;28;20027;-82
2021/09/07 11:53:56;;;;;;;9.77;4.20;;;23.10;72.20;;;;;;5091059;28;20016;-82
2021/09/07 11:56:24;;;;;;;7.03;4.40;;;23.30;70.30;;;;;;5089531;28;20032;-82
2021/09/07 11:58:50;;;;;;;7.32;5.03;;;23.40;69.60;;;;;;5083485;28;20150;-82
2021/09/07 12:01:23;;;;;;;8.73;4.53;;;23.50;70.90;;;;;;5076510;28;20044;-81
2021/09/07 12:03:58;;;;;;;6.65;4.68;;;23.60;69.10;;;;;;5073226;28;20044;-79
2021/09/07 12:06:36;;;;;;;5.82;4.30;;;23.80;66.60;;;;;;5072109;28;20024;-79
2021/09/07 12:09:16;;;;;;;7.03;4.82;;;23.90;66.30;;;;;;5073903;28;20094;-80
2021/09/07 12:11:48;;;;;;;7.50;4.80;;;24.00;65.00;;;;;;5085697;28;20546;-84
2021/09/07 12:14:24;;;;;;;7.15;4.60;;;24.20;65.70;;;;;;5078117;28;20350;-81
2021/09/07 12:16:52;;;;;;;8.13;4.78;;;24.40;62.20;;;;;;5078893;28;20227;-79
2021/09/07 12:19:22;;;;;;;7.30;4.53;;;24.50;62.50;;;;;;5096831;28;20051;-79
2021/09/07 12:22:11;;;;;;;6.10;4.25;;;24.60;63.60;;;;;;5088587;28;20042;-79
2021/09/07 12:24:40;;;;;;;8.75;4.32;;;24.70;63.40;;;;;;5090387;28;20077;-79
2021/09/07 12:27:22;;;;;;;6.78;4.75;;;24.90;62.40;;;;;;5105626;28;20028;-80
2021/09/07 12:30:10;;;;;;;6.03;4.30;;;25.00;59.50;;;;;;5083524;28;20025;-84
2021/09/07 12:32:45;;;;;;;9.30;4.80;;;25.20;59.90;;;;;;5083947;28;20024;-85
2021/09/07 12:35:11;;;;;;;8.48;4.88;;;25.30;61.50;;;;;;5088358;28;20118;-84
2021/09/07 12:37:37;;;;;;;6.40;4.28;;;25.40;62.90;;;;;;5079797;28;20035;-84
2021/09/07 12:40:03;;;;;;;7.25;4.57;;;25.60;61.00;;;;;;5087592;28;20040;-85
2021/09/07 12:42:28;;;;;;;6.47;4.78;;;25.70;62.50;;;;;;5118512;28;20085;-83
2021/09/07 12:44:54;;;;;;;8.48;4.45;;;25.80;61.00;;;;;;5099891;28;20032;-87
2021/09/07 12:47:20;;;;;;;8.82;4.85;;;25.90;59.60;;;;;;5082886;28;20035;-87
2021/09/07 12:49:45;;;;;;;5.78;4.63;;;26.00;60.30;;;;;;5085838;28;20031;-86